Time;durP1;ratioP1;P1;durP2;ratioP2;P2;SDS_P1;SDS_P2;PMS_P1;PMS_P2;Temp;Humidity;BMP_temperature;BMP_pressure;BME280_temperature;BME280_humidity;BME280_pressure;Samples;Min_cycle;Max_cycle;Signal;HPM_P1;HPM_P2
2023/12/21 00:02:45;;;;;;;0.20;0.00;;;3.70;76.10;;;;;;20983516;28;20032;-56
2023/12/21 00:12:47;;;;;;;0.10;0.00;;;3.50;76.60;;;;;;20966464;28;20055;-49
2023/12/21 00:22:49;;;;;;;0.00;0.00;;;3.20;78.30;;;;;;20972824;28;20056;-58
2023/12/21 00:32:51;;;;;;;0.00;0.00;;;3.40;77.10;;;;;;20997362;28;20048;-48
2023/12/21 00:42:53;;;;;;;0.05;0.00;;;3.40;77.60;;;;;;20975564;28;20033;-57
2023/12/21 00:52:55;;;;;;;0.00;0.00;;;3.20;78.40;;;;;;20988365;28;20090;-51
2023/12/21 01:02:57;;;;;;;0.10;0.00;;;3.20;79.90;;;;;;20995946;28;20916;-58
2023/12/21 01:13:01;;;;;;;0.00;0.00;;;3.00;80.30;;;;;;20977647;28;20082;-56
2023/12/21 01:23:03;;;;;;;0.10;0.00;;;3.30;79.00;;;;;;20984378;28;20098;-60
2023/12/21 01:33:05;;;;;;;0.05;0.00;;;3.10;79.00;;;;;;20993550;28;20037;-48
2023/12/21 01:43:07;;;;;;;0.13;0.05;;;3.10;79.10;;;;;;20970741;28;20052;-51
2023/12/21 01:53:11;;;;;;;0.10;0.00;;;2.90;79.40;;;;;;20983738;28;20040;-60
2023/12/21 02:03:14;;;;;;;0.03;0.00;;;2.70;80.30;;;;;;20991634;28;20047;-54
2023/12/21 02:13:16;;;;;;;0.00;0.00;;;2.70;80.20;;;;;;20970755;28;20035;-60
2023/12/21 02:23:20;;;;;;;0.05;0.00;;;2.60;80.60;;;;;;20981254;28;20806;-58
2023/12/21 02:33:23;;;;;;;0.00;0.00;;;2.40;82.00;;;;;;20988845;28;20032;-58
2023/12/21 02:43:24;;;;;;;0.10;0.05;;;2.20;81.40;;;;;;20966287;28;20048;-52
2023/12/21 02:53:26;;;;;;;0.10;0.00;;;2.30;80.50;;;;;;20961410;28;20040;-55
2023/12/21 03:03:28;;;;;;;0.10;0.00;;;2.30;81.80;;;;;;20986115;28;20432;-59
2023/12/21 03:13:30;;;;;;;0.75;0.00;;;2.20;81.30;;;;;;20966038;28;20051;-58
2023/12/21 03:23:34;;;;;;;0.00;0.00;;;2.20;81.40;;;;;;20977712;28;20044;-60
2023/12/21 03:33:36;;;;;;;0.10;0.00;;;2.40;80.60;;;;;;20954694;28;20559;-61
2023/12/21 03:43:38;;;;;;;0.40;0.00;;;2.40;80.10;;;;;;20949122;28;20079;-60
2023/12/21 03:53:40;;;;;;;0.20;0.00;;;2.30;80.90;;;;;;20918488;28;20506;-60
2023/12/21 04:03:42;;;;;;;0.75;0.10;;;1.80;82.60;;;;;;20907142;28;20166;-60
2023/12/21 04:13:46;;;;;;;0.10;0.00;;;1.70;84.00;;;;;;20931927;28;20021;-62
2023/12/21 04:23:48;;;;;;;0.10;0.00;;;1.20;87.50;;;;;;20909757;28;20045;-60
2023/12/21 04:33:52;;;;;;;0.05;0.00;;;1.10;86.30;;;;;;20940371;28;20033;-56
2023/12/21 04:43:54;;;;;;;0.00;0.00;;;0.90;86.00;;;;;;20751380;28;20117;-53
2023/12/21 04:53:56;;;;;;;0.75;0.10;;;0.60;89.10;;;;;;20744694;28;20046;-62
2023/12/21 05:03:59;;;;;;;0.05;0.00;;;0.30;90.30;;;;;;20736511;28;20131;-60
2023/12/21 05:14:01;;;;;;;0.08;0.00;;;0.20;90.40;;;;;;20871535;28;20045;-60
2023/12/21 05:24:03;;;;;;;0.57;0.10;;;0.20;90.30;;;;;;20879273;28;20107;-60
2023/12/21 05:34:05;;;;;;;0.00;0.00;;;-0.10;91.30;;;;;;20895002;28;20033;-60
2023/12/21 05:44:07;;;;;;;0.10;0.00;;;-0.40;91.60;;;;;;20921393;28;20114;-59
2023/12/21 05:54:09;;;;;;;0.00;0.00;;;-0.40;92.10;;;;;;20912142;28;20033;-60
2023/12/21 06:04:11;;;;;;;0.00;0.00;;;-0.50;92.00;;;;;;20914163;28;20048;-60
2023/12/21 06:14:13;;;;;;;0.10;0.00;;;-0.50;92.20;;;;;;20922331;28;20032;-60
2023/12/21 06:24:15;;;;;;;0.08;0.00;;;-0.40;92.10;;;;;;20920103;28;20049;-47
2023/12/21 06:34:16;;;;;;;0.00;0.00;;;-0.50;92.20;;;;;;20987079;28;20036;-60
2023/12/21 06:44:18;;;;;;;0.20;0.00;;;-0.70;92.40;;;;;;20985530;28;20101;-60
2023/12/21 06:54:20;;;;;;;0.28;0.08;;;-0.70;92.50;;;;;;20989640;28;20036;-61
2023/12/21 07:04:22;;;;;;;0.10;0.00;;;-0.70;92.80;;;;;;20984216;28;20036;-58
2023/12/21 07:14:24;;;;;;;0.45;0.00;;;-0.50;92.30;;;;;;20983553;28;20098;-60
2023/12/21 07:24:26;;;;;;;0.10;0.00;;;-0.40;92.50;;;;;;20949068;28;20037;-60
2023/12/21 07:34:28;;;;;;;0.40;0.00;;;-0.30;92.90;;;;;;20919422;28;20036;-60
2023/12/21 07:44:32;;;;;;;0.20;0.10;;;-0.10;92.70;;;;;;20899279;28;20037;-61
2023/12/21 07:54:34;;;;;;;1.48;0.10;;;0.20;92.70;;;;;;20921986;28;20040;-56
2023/12/21 08:04:39;;;;;;;0.75;0.10;;;0.50;92.50;;;;;;20891068;28;20032;-60
2023/12/21 08:14:41;;;;;;;0.30;0.10;;;0.90;93.00;;;;;;20886999;28;20037;-59
2023/12/21 08:24:43;;;;;;;0.20;0.10;;;1.70;92.00;;;;;;20930966;28;20036;-48
2023/12/21 08:34:45;;;;;;;0.28;0.10;;;2.60;90.90;;;;;;20913373;28;20037;-57
2023/12/21 08:44:48;;;;;;;0.10;0.00;;;3.30;87.70;;;;;;20913735;28;20083;-59
2023/12/21 08:54:51;;;;;;;0.10;0.08;;;4.70;81.10;;;;;;20933643;28;20070;-52
2023/12/21 09:04:53;;;;;;;0.20;0.00;;;5.50;82.70;;;;;;20935462;28;20033;-46
2023/12/21 09:14:55;;;;;;;0.13;0.05;;;6.00;79.60;;;;;;20903219;28;20029;-60
2023/12/21 09:25:00;;;;;;;0.00;0.00;;;6.10;79.10;;;;;;20946673;28;20426;-60
2023/12/21 09:35:02;;;;;;;0.20;0.10;;;6.10;80.10;;;;;;20993356;28;20021;-60
2023/12/21 09:45:05;;;;;;;0.80;0.13;;;5.90;80.30;;;;;;20992201;28;20033;-59
2023/12/21 09:55:09;;;;;;;0.20;0.10;;;6.30;80.90;;;;;;20987803;28;20044;-60
2023/12/21 10:05:11;;;;;;;0.30;0.10;;;6.30;79.70;;;;;;20988847;28;20086;-49
2023/12/21 10:15:18;;;;;;;0.22;0.10;;;6.10;79.40;;;;;;20730260;28;20073;-59
2023/12/21 10:25:21;;;;;;;0.30;0.10;;;6.10;81.10;;;;;;20730922;28;20053;-59
2023/12/21 10:35:23;;;;;;;0.35;0.20;;;5.80;80.50;;;;;;20729786;28;20097;-50
2023/12/21 10:45:25;;;;;;;0.68;0.20;;;5.80;80.40;;;;;;20760228;28;20044;-50
2023/12/21 10:55:30;;;;;;;0.95;0.40;;;5.80;81.40;;;;;;20987698;28;20040;-59
2023/12/21 11:05:34;;;;;;;0.80;0.30;;;5.90;79.80;;;;;;21011363;28;20047;-52
2023/12/21 11:15:36;;;;;;;3.60;0.50;;;5.90;83.70;;;;;;20988783;28;20371;-59
2023/12/21 11:25:38;;;;;;;1.10;0.35;;;5.60;84.30;;;;;;20946222;28;20061;-61
2023/12/21 11:35:40;;;;;;;1.05;0.40;;;5.30;85.50;;;;;;20919922;28;20048;-60
2023/12/21 11:45:48;;;;;;;1.10;0.40;;;5.20;84.10;;;;;;20936847;28;20048;-60
2023/12/21 11:55:53;;;;;;;0.50;0.30;;;5.00;84.20;;;;;;20927891;28;20025;-61
2023/12/21 12:06:03;;;;;;;1.70;0.40;;;5.40;83.90;;;;;;20939607;28;20028;-54
2023/12/21 12:16:07;;;;;;;1.87;0.43;;;6.50;83.50;;;;;;20943254;28;20037;-55
2023/12/21 12:26:09;;;;;;;1.27;0.52;;;6.80;81.60;;;;;;20953260;28;20052;-50
2023/12/21 12:36:11;;;;;;;1.00;0.65;;;8.10;79.70;;;;;;20939666;28;20029;-59
2023/12/21 12:46:14;;;;;;;3.10;0.98;;;7.80;79.90;;;;;;20955236;28;20149;-61
2023/12/21 12:56:16;;;;;;;0.30;0.20;;;8.00;81.70;;;;;;20937407;28;20052;-48
2023/12/21 13:06:18;;;;;;;0.10;0.00;;;8.40;79.50;;;;;;20968200;28;20483;-50
2023/12/21 13:16:20;;;;;;;0.00;0.00;;;8.80;77.30;;;;;;20957855;28;20062;-52
2023/12/21 13:26:22;;;;;;;0.10;0.00;;;9.40;76.10;;;;;;20936803;28;20351;-50
2023/12/21 13:36:24;;;;;;;1.58;0.10;;;9.10;77.10;;;;;;20915188;28;20418;-47
2023/12/21 13:46:28;;;;;;;0.32;0.00;;;8.80;78.40;;;;;;20949223;28;20028;-51
2023/12/21 13:56:30;;;;;;;0.08;0.00;;;8.80;75.60;;;;;;20940855;28;20051;-47
2023/12/21 14:06:34;;;;;;;0.40;0.10;;;9.00;76.70;;;;;;20931123;28;20095;-47
2023/12/21 14:16:37;;;;;;;1.00;0.40;;;8.70;77.70;;;;;;20938253;28;20037;-58
2023/12/21 14:26:39;;;;;;;0.70;0.32;;;8.40;79.50;;;;;;20918748;28;20049;-58
2023/12/21 14:36:41;;;;;;;0.00;0.00;;;7.50;81.80;;;;;;20895866;28;20025;-55
2023/12/21 14:46:43;;;;;;;0.05;0.00;;;7.60;80.40;;;;;;20944786;28;20038;-49
2023/12/21 14:56:45;;;;;;;0.10;0.10;;;7.80;80.70;;;;;;20929125;28;20040;-60
2023/12/21 15:06:47;;;;;;;3.80;0.10;;;7.60;80.70;;;;;;20954127;28;20036;-49
2023/12/21 15:16:51;;;;;;;0.43;0.10;;;7.40;79.70;;;;;;20922960;28;20033;-49
2023/12/21 15:26:53;;;;;;;0.82;0.10;;;7.10;81.50;;;;;;20966926;28;20419;-60
2023/12/21 15:36:55;;;;;;;0.20;0.10;;;7.20;81.10;;;;;;20972598;28;20024;-48
2023/12/21 15:46:56;;;;;;;0.40;0.10;;;7.40;79.90;;;;;;20970519;28;20055;-61
2023/12/21 15:56:58;;;;;;;0.22;0.05;;;7.60;80.70;;;;;;20965394;28;20091;-54
2023/12/21 16:07:00;;;;;;;0.20;0.00;;;7.40;81.80;;;;;;20949812;28;20039;-60
2023/12/21 16:17:03;;;;;;;0.03;0.00;;;7.90;81.50;;;;;;20998140;28;20035;-49
2023/12/21 16:27:06;;;;;;;0.20;0.00;;;7.80;81.90;;;;;;21049683;28;20052;-58
2023/12/21 16:37:08;;;;;;;0.45;0.10;;;7.90;81.90;;;;;;21049321;28;20028;-46
2023/12/21 16:47:11;;;;;;;0.10;0.05;;;7.80;82.60;;;;;;20982261;28;20544;-56
2023/12/21 16:57:13;;;;;;;0.40;0.17;;;7.50;83.10;;;;;;20973752;28;20105;-59
2023/12/21 17:07:15;;;;;;;0.00;0.00;;;7.00;83.30;;;;;;20982637;28;20385;-61
2023/12/21 17:17:16;;;;;;;0.08;0.03;;;7.20;84.40;;;;;;21021724;28;20028;-59
2023/12/21 17:27:18;;;;;;;0.20;0.10;;;7.10;85.10;;;;;;21070202;28;20102;-50
2023/12/21 17:37:20;;;;;;;0.30;0.10;;;6.80;85.00;;;;;;21063098;28;20070;-61
2023/12/21 17:47:22;;;;;;;0.47;0.20;;;6.20;86.70;;;;;;21069612;28;20085;-50
2023/12/21 17:57:24;;;;;;;0.95;0.22;;;5.70;87.80;;;;;;21008014;28;20040;-51
2023/12/21 18:07:25;;;;;;;0.32;0.10;;;5.10;89.50;;;;;;20981541;28;20505;-58
2023/12/21 18:17:27;;;;;;;0.55;0.20;;;4.40;90.70;;;;;;21061464;28;20085;-58
2023/12/21 18:27:29;;;;;;;0.90;0.40;;;4.00;91.30;;;;;;21021330;28;20394;-57
2023/12/21 18:37:31;;;;;;;0.73;0.40;;;3.50;92.00;;;;;;20984015;28;20040;-60
2023/12/21 18:47:33;;;;;;;0.60;0.20;;;3.20;92.70;;;;;;20988057;28;20033;-49
2023/12/21 18:57:35;;;;;;;0.75;0.20;;;2.60;93.80;;;;;;21020018;28;20694;-48
2023/12/21 19:07:36;;;;;;;0.90;0.30;;;2.30;94.60;;;;;;21059174;28;20036;-60
2023/12/21 19:17:38;;;;;;;1.08;0.20;;;2.30;94.60;;;;;;21011378;28;20054;-49
2023/12/21 19:27:40;;;;;;;0.55;0.20;;;2.00;95.10;;;;;;21033502;28;20052;-60
2023/12/21 19:37:42;;;;;;;1.02;0.40;;;1.90;95.70;;;;;;21047397;28;20036;-50
2023/12/21 19:47:43;;;;;;;1.23;0.30;;;1.90;95.90;;;;;;20984817;28;20440;-46
2023/12/21 19:57:45;;;;;;;1.17;0.30;;;2.20;95.60;;;;;;20975675;28;20024;-52
2023/12/21 20:07:47;;;;;;;1.65;0.32;;;2.20;96.00;;;;;;20969934;28;20028;-52
2023/12/21 20:17:49;;;;;;;0.73;0.30;;;1.90;96.40;;;;;;20980120;28;20045;-49
2023/12/21 20:27:53;;;;;;;0.57;0.30;;;1.80;96.80;;;;;;21015839;28;20189;-48
2023/12/21 20:37:54;;;;;;;1.75;0.30;;;1.40;97.60;;;;;;21046964;28;20033;-51
2023/12/21 20:47:57;;;;;;;0.35;0.20;;;1.40;97.90;;;;;;21007009;28;20032;-60
2023/12/21 20:58:01;;;;;;;1.45;0.30;;;1.40;98.10;;;;;;21032112;28;20036;-46
2023/12/21 21:08:03;;;;;;;0.43;0.25;;;1.50;98.00;;;;;;21063852;28;20033;-59
2023/12/21 21:18:05;;;;;;;1.08;0.30;;;1.80;97.70;;;;;;21074030;28;20028;-47
2023/12/21 21:28:07;;;;;;;1.20;0.30;;;1.50;98.30;;;;;;21059145;28;20044;-49
2023/12/21 21:38:09;;;;;;;0.15;0.10;;;1.60;98.50;;;;;;21018271;28;20033;-61
2023/12/21 21:48:11;;;;;;;0.30;0.10;;;1.90;98.50;;;;;;20995521;28;20048;-60
2023/12/21 21:58:13;;;;;;;1.02;0.20;;;2.00;98.40;;;;;;20929399;28;20033;-61
2023/12/21 22:08:16;;;;;;;0.30;0.20;;;2.10;98.30;;;;;;21037659;28;20037;-51
2023/12/21 22:18:18;;;;;;;0.20;0.10;;;2.40;98.10;;;;;;21049360;28;20064;-60
2023/12/21 22:28:20;;;;;;;0.20;0.10;;;2.80;97.40;;;;;;21011598;28;20094;-49
2023/12/21 22:38:22;;;;;;;0.40;0.10;;;2.80;97.50;;;;;;20959842;28;20094;-60
2023/12/21 22:48:25;;;;;;;0.28;0.10;;;2.80;97.20;;;;;;20987344;28;20108;-61
2023/12/21 22:58:27;;;;;;;0.30;0.00;;;3.30;96.50;;;;;;21058820;28;20024;-59
2023/12/21 23:08:29;;;;;;;0.73;0.03;;;3.00;96.30;;;;;;20981527;28;20033;-60
2023/12/21 23:18:30;;;;;;;0.68;0.20;;;2.70;96.50;;;;;;21013743;28;20036;-59
2023/12/21 23:28:32;;;;;;;0.25;0.10;;;2.90;96.20;;;;;;21059961;28;20052;-60
2023/12/21 23:38:38;;;;;;;0.15;0.10;;;3.30;94.90;;;;;;21010992;28;20048;-59
2023/12/21 23:48:40;;;;;;;4.40;0.20;;;3.60;94.10;;;;;;21067165;28;20043;-59
2023/12/21 23:58:42;;;;;;;0.98;0.10;;;3.40;94.50;;;;;;21058888;28;20036;-53
